WetterOnline ( http://www.wetteronline.de )

Wetter aktuell Meiningen

Aktuelles Wetter: Meiningen (453m)

6-stündlich | Neueste Meldungen
Ortszeit Temperatur Wetter
Di, 18.12. 13:00 2.4° C bedeckt
Di, 18.12. 7:00 1.5° C Nebel
Di, 18.12. 1:00 0.9° C Nebel
Mo, 17.12. 19:00 1.2° C Sprühregen
Mo, 17.12. 13:00 0.1° C Nebel
Mo, 17.12. 7:00 -1.4° C Nebel
Mo, 17.12. 1:00 -2.2° C Nebel
So, 16.12. 19:00 -3.2° C Schneefall
Ortszeit Temperatur Wetter
Di, 18.12. 15:30 2.8° C bewölkt
Di, 18.12. 15:10 2.7° C bedeckt
Di, 18.12. 15:00 2.8° C bewölkt
Di, 18.12. 14:50 2.8° C bewölkt
Di, 18.12. 14:40 2.8° C wolkig
Di, 18.12. 14:30 2.7° C wolkig
Di, 18.12. 14:00 2.6° C bewölkt
Di, 18.12. 13:30 2.5° C bedeckt
Di, 18.12. 13:00 2.4° C bedeckt
Di, 18.12. 12:30 2.3° C Nebel
Ortszeit Relative Feuchte Sichtweite
Di, 18.12. 13:00 99% 1.7 km
Di, 18.12. 7:00 99% 0.8 km
Di, 18.12. 1:00 100% 100 m
Mo, 17.12. 19:00 99% 3.9 km
Mo, 17.12. 13:00 99% 100 m
Mo, 17.12. 7:00 100% 100 m
Mo, 17.12. 1:00 99% 100 m
So, 16.12. 19:00 91% 8 km
Ortszeit Relative Feuchte Sichtweite
Di, 18.12. 15:30 95% 9 km
Di, 18.12. 15:10 96% -
Di, 18.12. 15:00 95% 10 km
Di, 18.12. 14:50 95% -
Di, 18.12. 14:40 95% -
Di, 18.12. 14:30 92% 17 km
Di, 18.12. 14:00 95% 7 km
Di, 18.12. 13:30 98% 5.0 km
Di, 18.12. 13:00 99% 1.7 km
Di, 18.12. 12:30 99% 0.5 km
Ortszeit Niederschlagsmenge Niederschlagsart
Di, 18.12. 13:00 0.1 l/m2 in 6 Std. Sprühregen
Di, 18.12. 7:00 0.3 l/m2 in 12 Std. -
Di, 18.12. 1:00 0.3 l/m2 in 6 Std. Regen
Mo, 17.12. 19:00 0.1 l/m2 in 12 Std. Schnee, Regen
Mo, 17.12. 13:00 0.1 l/m2 in 6 Std. Sprühregen
Mo, 17.12. 7:00 0.1 l/m2 in 12 Std. Schnee, Sprühregen
Mo, 17.12. 1:00 0.1 l/m2 in 6 Std. Schnee
So, 16.12. 19:00 0.6 l/m2 in 12 Std. Schnee, Regen
Ortszeit Niederschlagsmenge Niederschlagsart
Di, 18.12. 15:30 0.0 l/m2 in 1 Std. -
Di, 18.12. 15:10 keine Meldung -
Di, 18.12. 15:00 0.0 l/m2 in 1 Std. -
Di, 18.12. 14:50 keine Meldung -
Di, 18.12. 14:40 keine Meldung -
Di, 18.12. 14:30 0.0 l/m2 in 1 Std. -
Di, 18.12. 14:00 0.0 l/m2 in 1 Std. -
Di, 18.12. 13:30 0.0 l/m2 in 1 Std. -
Di, 18.12. 13:00 0.0 l/m2 in 1 Std. Sprühregen
Di, 18.12. 12:30 0.0 l/m2 in 1 Std. -
Ortszeit Stärke Spitze Richtung
km/h Bft. km/h Grad Sektor
Di, 18.12. 13:00 11 2 22 160° S
Di, 18.12. 7:00 9 2 19 180° S
Di, 18.12. 1:00 4 1 25 80° O
Mo, 17.12. 19:00 14 3 25 200° S
Mo, 17.12. 13:00 11 2 18 150° SO
Mo, 17.12. 7:00 6 1 15 150° SO
Mo, 17.12. 1:00 7 2 18 130° SO
So, 16.12. 19:00 11 2 22 180° S
Ortszeit Stärke Spitze Richtung
km/h Bft. km/h Grad Sektor
Di, 18.12. 15:30 9 2 13 140° SO
Di, 18.12. 15:10 7 2 - 140° SO
Di, 18.12. 15:00 7 2 14 170° S
Di, 18.12. 14:50 7 2 - 170° S
Di, 18.12. 14:40 7 2 - 160° S
Di, 18.12. 14:30 9 2 15 160° S
Di, 18.12. 14:00 7 2 14 180° S
Di, 18.12. 13:30 7 2 14 160° S
Di, 18.12. 13:00 11 2 22 160° S
Di, 18.12. 12:30 13 3 20 170° S
Ortszeit Untergrenze Bedeckung Gattung
total tief tief mittel hoch
Di, 18.12. 13:00 <30 m 8/8 8/8 - - -
Di, 18.12. 7:00 30 m 8/8 8/8 - - -
Di, 18.12. 1:00 <30 m 8/8 8/8 - - -
Mo, 17.12. 19:00 30 m 7/8 7/8 - - -
Mo, 17.12. 13:00 <30 m 8/8 8/8 - - -
Mo, 17.12. 7:00 <30 m 8/8 8/8 - - -
Mo, 17.12. 1:00 <30 m 8/8 8/8 - - -
So, 16.12. 19:00 180 m 8/8 8/8 - - -
Ortszeit Bedeckungsgrad in Achtel und Wolkenuntergrenze
Di, 18.12. 15:30 4(210m) 7(570m)
Di, 18.12. 15:10 6(180m) 8(540m)
Di, 18.12. 15:00 4(120m) 6(210m) 7(540m)
Di, 18.12. 14:50 4(120m) 6(210m) 7(540m)
Di, 18.12. 14:40 2(120m) 5(240m) 6(450m)
Di, 18.12. 14:30 2(270m) 5(1050m) 5(9000m)
Di, 18.12. 14:00 2(90m) 7(390m) 7(870m)
Di, 18.12. 13:30 3(30m) 8(150m)
Di, 18.12. 13:00 8(<30m)
Di, 18.12. 12:30 8(<30m)
Ortszeit Luftdruck NN (hPa) Tendenz (hPa in 3 Std.)
Di, 18.12. 13:00 1026 - 1,9
Di, 18.12. 7:00 1028 + 0,5
Di, 18.12. 1:00 1028 + 0,7
Mo, 17.12. 19:00 1025 + 1,9
Mo, 17.12. 13:00 1022 + 0,3
Mo, 17.12. 7:00 1020 + 1,5
Mo, 17.12. 1:00 1018 + 0,7
So, 16.12. 19:00 1016 + 1,5
Ortszeit Luftdruck NN (hPa) Tendenz (hPa in 3 Std.)
Di, 18.12. 15:30 1025 - 2,1
Di, 18.12. 15:10 1025 keine Meldung
Di, 18.12. 15:00 1025 - 2,1
Di, 18.12. 14:50 1025 keine Meldung
Di, 18.12. 14:40 1025 keine Meldung
Di, 18.12. 14:30 1025 - 2,2
Di, 18.12. 14:00 1025 - 2,9
Di, 18.12. 13:30 1026 - 2,5
Di, 18.12. 13:00 1026 - 1,9
Di, 18.12. 12:30 1027 - 1,3
Ortszeit Schneehöhe (cm)
Di, 18.12. 13:00 -
Di, 18.12. 7:00 -
Di, 18.12. 1:00 -
Mo, 17.12. 19:00 -
Mo, 17.12. 13:00 2
Mo, 17.12. 7:00 2
Mo, 17.12. 1:00 2
So, 16.12. 19:00 2
Ortszeit Schneehöhe (cm)
Di, 18.12. 15:30 0
Di, 18.12. 15:10 0
Di, 18.12. 15:00 0
Di, 18.12. 14:50 0
Di, 18.12. 14:40 0
Di, 18.12. 14:30 0
Di, 18.12. 14:00 -
Di, 18.12. 13:30 -
Di, 18.12. 13:00 -
Di, 18.12. 12:30 -
Link zu dieser Seite / Seite empfehlen

Das Wetter in ...